South Collingham, United Kingdom
Current Conditions -  °F | °C
As of 9:15 AM on Friday 24 Oct 2014 (Local Time) from EGXW Reporting Station
Broken Clouds Broken Clouds  
Wind Chill: 55°   Ceiling: 6000
Heat Index: 55°   Visibility: 6mi
Dew Point: 54°   Wind: 9mph
Humidity: 94%   Direction: 230°SW
Pressure: 29.88"   Gusts: NA
Location:  53.13°N, 0.77°W
Report Text: EGXW 240815Z 23008KT 9999 FEW018 BKN060 BKN250 13/12 Q1012 BLU TEMPO SCT018 WHT
Loading
Personal Weather Stations






























Interactive Weather Map
Tropical Storm Tracking
New forecast layout! Learn more

10-Day Weather Forecast

Advertisements
Track Severe Weather on mobile